createdAt,value
2024-04-21T00:01:31.480Z,3.83
2024-04-21T00:04:03.384Z,4.35
2024-04-21T00:06:33.845Z,3.97
2024-04-21T00:09:04.345Z,3.80
2024-04-21T00:11:34.747Z,4.32
2024-04-21T00:14:05.304Z,4.75
2024-04-21T00:16:35.653Z,3.67
2024-04-21T00:19:06.223Z,3.92
2024-04-21T00:21:36.796Z,3.72
2024-04-21T00:24:07.387Z,4.05
2024-04-21T00:26:37.650Z,3.53
2024-04-21T00:29:09.266Z,3.58
2024-04-21T00:31:41.050Z,5.03
2024-04-21T00:34:11.824Z,30.58
2024-04-21T00:36:45.916Z,3.65
2024-04-21T00:39:16.312Z,3.83
2024-04-21T00:41:46.722Z,3.60
2024-04-21T00:44:17.078Z,2.95
2024-04-21T00:46:47.743Z,3.38
2024-04-21T00:49:18.321Z,3.53
2024-04-21T00:51:49.464Z,3.75
2024-04-21T00:54:20.117Z,4.43
2024-04-21T00:56:51.500Z,3.42
2024-04-21T01:01:52.815Z,3.42
2024-04-21T01:04:24.794Z,4.03
2024-04-21T01:06:55.175Z,3.80
2024-04-21T01:09:25.566Z,4.28
2024-04-21T01:11:55.882Z,4.35
2024-04-21T01:14:26.343Z,4.35
2024-04-21T01:16:56.502Z,3.75
2024-04-21T01:19:26.970Z,4.85
2024-04-21T01:21:57.289Z,5.75
2024-04-21T01:24:27.749Z,4.82
2024-04-21T01:26:58.311Z,5.93
2024-04-21T01:29:28.725Z,4.70
2024-04-21T01:31:58.905Z,5.35
2024-04-21T01:34:29.416Z,6.97
2024-04-21T01:36:59.872Z,8.35
2024-04-21T01:39:30.345Z,9.48
2024-04-21T01:42:00.487Z,8.73
2024-04-21T01:44:30.943Z,9.65
2024-04-21T01:47:01.350Z,9.48
2024-04-21T01:49:31.907Z,8.18
2024-04-21T01:52:02.306Z,8.82
2024-04-21T01:54:32.796Z,7.40
2024-04-21T01:57:03.137Z,7.45
2024-04-21T01:59:33.531Z,6.65
2024-04-21T02:02:03.828Z,7.93
2024-04-21T02:04:35.304Z,6.85
2024-04-21T02:07:07.516Z,7.40
2024-04-21T02:09:38.627Z,6.80
2024-04-21T02:12:09.257Z,7.10
2024-04-21T02:14:39.915Z,7.32
2024-04-21T02:17:10.361Z,6.68
2024-04-21T02:19:40.818Z,6.45
2024-04-21T02:22:11.217Z,5.78
2024-04-21T02:24:45.758Z,5.97
2024-04-21T02:27:16.699Z,5.20
2024-04-21T02:29:47.131Z,5.38
2024-04-21T02:32:17.538Z,5.22
2024-04-21T02:34:48.394Z,5.63
2024-04-21T02:37:18.815Z,5.47
2024-04-21T02:39:49.350Z,4.80
2024-04-21T02:42:20.574Z,4.90
2024-04-21T02:44:50.928Z,4.88
2024-04-21T02:47:21.289Z,4.43
2024-04-21T02:49:52.010Z,4.90
2024-04-21T02:52:22.369Z,4.18
2024-04-21T02:54:52.701Z,4.10
2024-04-21T02:57:23.131Z,3.38
2024-04-21T02:59:53.465Z,3.30
2024-04-21T03:02:23.674Z,3.47
2024-04-21T03:04:55.411Z,4.43
2024-04-21T03:07:25.742Z,3.67
2024-04-21T03:09:56.024Z,3.72
2024-04-21T03:12:26.378Z,4.18
2024-04-21T03:14:56.733Z,3.90
2024-04-21T03:17:27.162Z,4.22
2024-04-21T03:19:57.601Z,4.22
2024-04-21T03:22:27.958Z,4.65
2024-04-21T03:24:58.447Z,4.43
2024-04-21T03:27:28.621Z,4.30
2024-04-21T03:29:59.055Z,4.80
2024-04-21T03:32:29.460Z,4.75
2024-04-21T03:34:59.969Z,3.75
2024-04-21T03:37:30.338Z,4.18
2024-04-21T03:40:02.859Z,3.60
2024-04-21T03:42:33.246Z,5.45
2024-04-21T03:45:03.718Z,5.63
2024-04-21T03:47:34.291Z,6.40
2024-04-21T03:50:04.881Z,5.00
2024-04-21T03:52:35.258Z,5.75
2024-04-21T03:55:05.821Z,6.15
2024-04-21T03:57:36.334Z,6.45
2024-04-21T04:00:07.630Z,7.00
2024-04-21T04:02:38.648Z,6.05
2024-04-21T04:05:10.101Z,6.22
2024-04-21T04:07:40.410Z,7.05
2024-04-21T04:10:10.937Z,6.32
2024-04-21T04:12:47.630Z,5.32
2024-04-21T04:15:19.617Z,5.75
2024-04-21T04:17:50.228Z,4.68
2024-04-21T04:20:20.690Z,5.68
2024-04-21T04:22:51.115Z,5.53
2024-04-21T04:25:21.527Z,5.72
2024-04-21T04:27:51.800Z,5.45
2024-04-21T04:30:22.309Z,4.65
2024-04-21T04:32:52.719Z,5.15
2024-04-21T04:35:23.046Z,5.55
2024-04-21T04:37:55.362Z,4.78
2024-04-21T04:40:26.208Z,5.68
2024-04-21T04:42:56.723Z,5.25
2024-04-21T04:45:27.245Z,6.03
2024-04-21T04:47:57.567Z,4.82
2024-04-21T04:50:27.810Z,5.32
2024-04-21T04:52:59.241Z,4.82
2024-04-21T04:55:29.540Z,5.50
2024-04-21T04:57:59.702Z,5.18
2024-04-21T05:00:30.055Z,5.30
2024-04-21T05:03:00.398Z,5.20
2024-04-21T05:05:31.593Z,5.50
2024-04-21T05:08:01.938Z,6.50
2024-04-21T05:10:32.412Z,5.18
2024-04-21T05:13:02.901Z,5.72
2024-04-21T05:15:33.431Z,6.07
2024-04-21T05:18:03.945Z,6.57
2024-04-21T05:20:34.446Z,5.95
2024-04-21T05:23:04.834Z,5.53
2024-04-21T05:25:35.308Z,6.57
2024-04-21T05:28:05.885Z,6.03
2024-04-21T05:30:36.431Z,5.35
2024-04-21T05:33:07.015Z,5.38
2024-04-21T05:35:37.522Z,5.20
2024-04-21T05:38:07.997Z,4.80
2024-04-21T05:40:38.514Z,4.88
2024-04-21T05:43:08.991Z,5.25
2024-04-21T05:45:39.442Z,5.15
2024-04-21T05:48:10.500Z,5.05
2024-04-21T05:50:45.312Z,6.28
2024-04-21T05:53:15.719Z,9.10
2024-04-21T05:55:46.166Z,12.95
2024-04-21T05:58:16.678Z,16.15
2024-04-21T06:00:47.239Z,18.02
2024-04-21T06:03:17.622Z,16.27
2024-04-21T06:05:48.875Z,17.13
2024-04-21T06:08:19.247Z,17.45
2024-04-21T06:10:49.743Z,18.10
2024-04-21T06:13:20.190Z,14.75
2024-04-21T06:15:50.624Z,13.82
2024-04-21T06:18:20.937Z,14.80
2024-04-21T06:20:51.480Z,15.07
2024-04-21T06:23:21.895Z,14.18
2024-04-21T06:25:52.278Z,14.55
2024-04-21T06:28:22.829Z,13.85
2024-04-21T06:30:53.410Z,13.05
2024-04-21T06:33:23.842Z,9.85
2024-04-21T06:35:54.327Z,10.55
2024-04-21T06:38:24.729Z,9.07
2024-04-21T06:40:55.176Z,9.10
2024-04-21T06:43:25.938Z,9.43
2024-04-21T06:45:56.392Z,9.48
2024-04-21T06:48:26.882Z,8.18
2024-04-21T06:50:57.443Z,8.07
2024-04-21T06:53:27.932Z,8.25
2024-04-21T06:55:58.392Z,8.52
2024-04-21T06:58:28.813Z,8.48
2024-04-21T07:00:59.309Z,10.02
2024-04-21T07:03:29.720Z,9.07
2024-04-21T07:06:00.916Z,7.22
2024-04-21T07:08:31.315Z,7.97
2024-04-21T07:11:02.497Z,8.82
2024-04-21T07:16:02.814Z,8.60
2024-04-21T07:18:33.491Z,8.55
2024-04-21T07:21:06.021Z,9.20
2024-04-21T07:23:36.639Z,10.45
2024-04-21T07:26:07.291Z,11.20
2024-04-21T07:28:37.654Z,11.15
2024-04-21T07:31:08.121Z,12.23
2024-04-21T07:33:38.432Z,13.35
2024-04-21T07:36:08.988Z,13.45
2024-04-21T07:38:39.368Z,13.98
2024-04-21T07:41:09.862Z,14.90
2024-04-21T07:43:40.243Z,12.50
2024-04-21T07:46:10.738Z,10.73
2024-04-21T07:48:41.184Z,10.55
2024-04-21T07:51:13.550Z,10.20
2024-04-21T07:53:45.353Z,9.98
2024-04-21T07:56:15.816Z,9.70
2024-04-21T07:58:46.193Z,9.10
2024-04-21T08:01:16.704Z,8.13
2024-04-21T08:03:46.984Z,9.43
2024-04-21T08:06:18.561Z,8.38
2024-04-21T08:11:28.185Z,8.57
2024-04-21T08:13:58.580Z,8.05
2024-04-21T08:16:29.103Z,8.27
2024-04-21T08:18:59.527Z,6.28
2024-04-21T08:21:29.909Z,8.13
2024-04-21T08:24:00.298Z,6.63
2024-04-21T08:26:31.090Z,7.75
2024-04-21T08:29:01.484Z,7.10
2024-04-21T08:31:31.952Z,7.53
2024-04-21T08:34:02.978Z,8.65
2024-04-21T08:36:33.512Z,7.45
2024-04-21T08:39:04.038Z,7.78
2024-04-21T08:42:01.434Z,8.73
2024-04-21T08:44:33.204Z,8.15
2024-04-21T08:47:06.096Z,7.43
2024-04-21T08:49:36.712Z,7.53
2024-04-21T08:52:12.530Z,7.25
2024-04-21T08:54:43.001Z,7.60
2024-04-21T08:57:15.979Z,7.40
2024-04-21T08:59:46.942Z,6.93
2024-04-21T09:02:17.676Z,6.80
2024-04-21T09:04:48.227Z,7.28
2024-04-21T09:07:21.087Z,8.20
2024-04-21T09:09:51.555Z,5.97
2024-04-21T09:12:22.609Z,6.05
2024-04-21T09:14:53.227Z,6.03
2024-04-21T09:17:23.985Z,6.28
2024-04-21T09:19:55.276Z,6.40
2024-04-21T09:22:25.812Z,6.15
2024-04-21T09:24:56.533Z,5.90
2024-04-21T09:27:31.383Z,5.47
2024-04-21T09:30:03.800Z,4.80
2024-04-21T09:32:36.169Z,4.72
2024-04-21T09:35:07.142Z,4.97
2024-04-21T09:37:37.637Z,4.43
2024-04-21T09:40:08.830Z,9.85
2024-04-21T09:42:39.509Z,17.20
2024-04-21T09:45:11.176Z,9.95
2024-04-21T09:50:14.091Z,4.20
2024-04-21T09:52:49.760Z,3.65
2024-04-21T09:55:22.060Z,5.13
2024-04-21T09:58:02.915Z,4.07
2024-04-21T10:00:34.358Z,3.58
2024-04-21T10:03:07.223Z,2.92
2024-04-21T10:05:38.757Z,4.15
2024-04-21T10:08:10.515Z,4.57
2024-04-21T10:10:42.736Z,4.10
2024-04-21T10:13:13.510Z,3.83
2024-04-21T10:15:45.165Z,4.03
2024-04-21T10:18:26.302Z,4.40
2024-04-21T10:20:56.992Z,4.90
2024-04-21T10:23:27.456Z,3.42
2024-04-21T10:25:57.838Z,4.15
2024-04-21T10:28:30.872Z,4.38
2024-04-21T10:31:11.267Z,4.32
2024-04-21T10:33:45.703Z,4.13
2024-04-21T10:36:22.871Z,3.10
2024-04-21T10:38:57.046Z,3.38
2024-04-21T10:41:27.999Z,3.15
2024-04-21T10:43:58.416Z,3.13
2024-04-21T10:46:32.006Z,3.03
2024-04-21T10:49:02.486Z,3.13
2024-04-21T10:51:36.313Z,3.28
2024-04-21T10:54:10.368Z,3.58
2024-04-21T10:56:40.977Z,2.75
2024-04-21T10:59:11.334Z,3.03
2024-04-21T11:01:41.841Z,2.85
2024-04-21T11:04:12.398Z,3.13
2024-04-21T11:06:42.986Z,3.22
2024-04-21T11:09:14.539Z,2.53
2024-04-21T11:14:14.563Z,2.45
2024-04-21T11:16:52.560Z,2.92
2024-04-21T11:19:23.978Z,2.78
2024-04-21T11:21:54.475Z,2.83
2024-04-21T11:24:25.173Z,2.83
2024-04-21T11:26:55.623Z,2.47
2024-04-21T11:29:26.059Z,2.55
2024-04-21T11:31:56.493Z,2.78
2024-04-21T11:34:42.070Z,2.92
2024-04-21T11:37:22.293Z,2.95
2024-04-21T11:39:52.712Z,3.47
2024-04-21T11:42:23.054Z,3.15
2024-04-21T11:44:53.641Z,2.97
2024-04-21T11:47:24.775Z,2.90
2024-04-21T11:49:56.213Z,2.65
2024-04-21T11:52:26.659Z,2.67
2024-04-21T11:54:57.211Z,2.50
2024-04-21T11:57:27.564Z,2.80
2024-04-21T11:59:58.047Z,2.50
2024-04-21T12:02:29.246Z,2.72
2024-04-21T12:04:59.751Z,2.22
2024-04-21T12:07:30.341Z,2.45
2024-04-21T12:10:01.673Z,2.75
2024-04-21T12:12:32.132Z,2.47
2024-04-21T12:15:03.221Z,2.47
2024-04-21T12:17:33.667Z,2.45
2024-04-21T12:20:04.122Z,2.10
2024-04-21T12:22:34.602Z,2.50
2024-04-21T12:25:05.163Z,2.25
2024-04-21T12:27:35.481Z,2.55
2024-04-21T12:30:07.540Z,2.65
2024-04-21T12:32:38.087Z,2.83
2024-04-21T12:35:08.680Z,2.83
2024-04-21T12:37:39.089Z,2.63
2024-04-21T12:40:09.878Z,2.33
2024-04-21T12:42:40.778Z,2.83
2024-04-21T12:45:11.677Z,2.85
2024-04-21T12:47:42.664Z,2.30
2024-04-21T12:50:13.082Z,2.28
2024-04-21T12:52:44.622Z,2.22
2024-04-21T12:57:44.788Z,2.58
2024-04-21T13:00:16.901Z,2.53
2024-04-21T13:02:47.379Z,2.67
2024-04-21T13:05:18.239Z,2.53
2024-04-21T13:07:48.626Z,2.50
2024-04-21T13:10:19.934Z,2.33
2024-04-21T13:12:50.516Z,2.88
2024-04-21T13:15:20.891Z,2.78
2024-04-21T13:17:52.424Z,3.53
2024-04-21T13:22:54.146Z,2.67
2024-04-21T13:25:24.517Z,3.33
2024-04-21T13:27:54.950Z,2.83
2024-04-21T13:30:25.475Z,2.83
2024-04-21T13:32:56.052Z,2.92
2024-04-21T13:35:26.479Z,3.45
2024-04-21T13:37:56.913Z,3.38
2024-04-21T13:40:27.485Z,3.58
2024-04-21T13:42:57.981Z,3.78
2024-04-21T13:45:28.417Z,3.55
2024-04-21T13:47:58.653Z,3.15
2024-04-21T13:50:29.788Z,3.55
2024-04-21T13:53:00.172Z,3.78
2024-04-21T13:55:30.490Z,3.20
2024-04-21T13:58:00.939Z,3.17
2024-04-21T14:00:31.366Z,2.65
2024-04-21T14:03:01.624Z,2.85
2024-04-21T14:05:32.119Z,2.45
2024-04-21T14:08:02.461Z,2.45
2024-04-21T14:10:33.854Z,2.35
2024-04-21T14:13:04.627Z,2.60
2024-04-21T14:15:35.413Z,1.90
2024-04-21T14:18:06.047Z,2.17
2024-04-21T14:20:36.605Z,2.55
2024-04-21T14:23:07.123Z,2.70
2024-04-21T14:25:37.626Z,2.35
2024-04-21T14:28:08.172Z,2.30
2024-04-21T14:30:38.649Z,2.22
2024-04-21T14:33:09.304Z,2.33
2024-04-21T14:35:40.134Z,2.72
2024-04-21T14:38:10.585Z,3.17
2024-04-21T14:40:41.115Z,2.40
2024-04-21T14:43:13.186Z,2.47
2024-04-21T14:45:50.145Z,2.55
2024-04-21T14:48:21.073Z,2.63
2024-04-21T14:51:01.586Z,2.80
2024-04-21T14:53:32.206Z,2.58
2024-04-21T14:56:06.549Z,2.75
2024-04-21T14:58:36.939Z,2.40
2024-04-21T15:01:07.577Z,2.63
2024-04-21T15:03:38.026Z,3.22
2024-04-21T15:06:08.708Z,2.83
2024-04-21T15:08:39.099Z,2.35
2024-04-21T15:11:11.225Z,3.08
2024-04-21T15:13:41.730Z,2.47
2024-04-21T15:16:12.174Z,2.58
2024-04-21T15:18:42.559Z,2.63
2024-04-21T15:21:13.399Z,2.30
2024-04-21T15:23:43.763Z,2.28
2024-04-21T15:26:14.020Z,2.47
2024-04-21T15:28:44.458Z,2.80
2024-04-21T15:31:15.436Z,2.47
2024-04-21T15:36:16.126Z,2.80
2024-04-21T15:38:46.595Z,3.22
2024-04-21T15:41:16.973Z,2.85
2024-04-21T15:43:47.315Z,2.88
2024-04-21T15:46:17.592Z,3.40
2024-04-21T15:48:48.016Z,2.80
2024-04-21T15:51:23.073Z,3.05
2024-04-21T15:53:53.568Z,3.63
2024-04-21T15:56:24.046Z,2.65
2024-04-21T15:58:54.338Z,3.10
2024-04-21T16:01:25.718Z,3.08
2024-04-21T16:03:56.174Z,2.53
2024-04-21T16:06:26.686Z,2.28
2024-04-21T16:08:57.073Z,3.45
2024-04-21T16:11:28.650Z,3.05
2024-04-21T16:13:59.109Z,3.80
2024-04-21T16:16:29.812Z,4.32
2024-04-21T16:19:00.262Z,3.17
2024-04-21T16:21:30.724Z,3.63
2024-04-21T16:24:01.668Z,3.63
2024-04-21T16:26:32.240Z,2.95
2024-04-21T16:29:02.592Z,3.33
2024-04-21T16:31:33.121Z,3.97
2024-04-21T16:34:03.657Z,3.53
2024-04-21T16:36:34.246Z,3.70
2024-04-21T16:39:04.977Z,2.97
2024-04-21T16:41:35.958Z,3.75
2024-04-21T16:44:06.723Z,3.75
2024-04-21T16:46:40.090Z,3.38
2024-04-21T16:49:10.918Z,3.13
2024-04-21T16:51:41.602Z,3.17
2024-04-21T16:54:12.387Z,3.13
2024-04-21T16:59:18.385Z,3.30
2024-04-21T17:01:49.716Z,2.58
2024-04-21T17:04:20.426Z,4.43
2024-04-21T17:06:53.892Z,3.45
2024-04-21T17:09:24.666Z,3.63
2024-04-21T17:14:27.513Z,3.65
2024-04-21T17:16:58.224Z,3.13
2024-04-21T17:19:30.789Z,3.28
2024-04-21T17:22:01.319Z,3.30
2024-04-21T17:24:31.886Z,3.05
2024-04-21T17:27:02.345Z,3.47
2024-04-21T17:29:32.791Z,3.38
2024-04-21T17:32:03.302Z,3.40
2024-04-21T17:34:33.650Z,3.88
2024-04-21T17:37:04.055Z,3.58
2024-04-21T17:42:04.473Z,3.83
2024-04-21T17:44:34.813Z,2.75
2024-04-21T17:47:05.429Z,2.88
2024-04-21T17:49:35.887Z,3.15
2024-04-21T17:52:07.753Z,3.80
2024-04-21T17:54:43.041Z,3.15
2024-04-21T17:57:18.992Z,2.70
2024-04-21T18:02:21.620Z,3.65
2024-04-21T18:04:54.025Z,3.03
2024-04-21T18:07:27.191Z,2.25
2024-04-21T18:09:59.158Z,2.75
2024-04-21T18:12:32.041Z,2.78
2024-04-21T18:15:02.594Z,2.20
2024-04-21T18:17:33.152Z,3.85
2024-04-21T18:22:33.515Z,3.17
2024-04-21T18:27:33.619Z,3.05
2024-04-21T18:30:04.111Z,3.35
2024-04-21T18:32:34.506Z,2.65
2024-04-21T18:37:34.597Z,3.22
2024-04-21T18:40:07.368Z,3.28
2024-04-21T18:42:37.998Z,3.42
2024-04-21T18:45:09.604Z,3.47
2024-04-21T18:47:40.020Z,2.70
2024-04-21T18:50:10.672Z,3.08
2024-04-21T18:55:10.757Z,2.45
2024-04-21T18:57:41.256Z,3.13
2024-04-21T19:00:12.160Z,2.47
2024-04-21T19:02:42.666Z,2.67
2024-04-21T19:05:13.072Z,2.95
2024-04-21T19:07:43.481Z,2.55
2024-04-21T19:10:14.119Z,2.45
2024-04-21T19:12:45.903Z,2.67
2024-04-21T19:15:16.694Z,3.17
2024-04-21T19:17:47.530Z,3.72
2024-04-21T19:20:18.515Z,2.60
2024-04-21T19:22:49.174Z,2.53
2024-04-21T19:25:19.869Z,2.63
2024-04-21T19:30:20.376Z,2.60
2024-04-21T19:32:50.829Z,3.97
2024-04-21T19:35:21.305Z,2.50
2024-04-21T19:37:51.525Z,3.55
2024-04-21T19:40:21.910Z,2.42
2024-04-21T19:42:52.364Z,3.50
2024-04-21T19:45:22.595Z,2.63
2024-04-21T19:47:53.233Z,2.00
2024-04-21T19:52:53.473Z,2.88
2024-04-21T19:55:23.977Z,2.72
2024-04-21T19:57:54.397Z,3.17
2024-04-21T20:00:24.552Z,3.08
2024-04-21T20:02:54.991Z,2.80
2024-04-21T20:05:25.316Z,3.53
2024-04-21T20:07:55.565Z,3.20
2024-04-21T20:10:26.953Z,3.15
2024-04-21T20:12:58.336Z,2.85
2024-04-21T20:15:46.882Z,2.58
2024-04-21T20:18:37.826Z,2.90
2024-04-21T20:21:09.005Z,2.92
2024-04-21T20:23:39.432Z,2.33
2024-04-21T20:26:15.379Z,2.38
2024-04-21T20:28:45.794Z,2.72
2024-04-21T20:31:21.755Z,2.88
2024-04-21T20:33:52.542Z,2.28
2024-04-21T20:36:48.262Z,2.95
2024-04-21T20:39:18.757Z,3.38
2024-04-21T20:41:49.054Z,2.78
2024-04-21T20:44:19.590Z,2.97
2024-04-21T20:46:50.103Z,3.08
2024-04-21T20:49:20.533Z,2.47
2024-04-21T20:51:50.710Z,2.78
2024-04-21T20:54:21.723Z,4.25
2024-04-21T20:59:23.560Z,3.42
2024-04-21T21:01:54.232Z,3.22
2024-04-21T21:04:24.839Z,3.05
2024-04-21T21:06:55.285Z,3.20
2024-04-21T21:09:25.788Z,2.75
2024-04-21T21:11:56.223Z,4.18
2024-04-21T21:14:32.467Z,4.15
2024-04-21T21:17:02.940Z,4.13
2024-04-21T21:19:33.809Z,3.67
2024-04-21T21:24:34.526Z,3.67
2024-04-21T21:27:05.001Z,3.60
2024-04-21T21:29:35.479Z,4.10
2024-04-21T21:32:05.922Z,3.72
2024-04-21T21:34:36.493Z,4.60
2024-04-21T21:37:07.095Z,4.45
2024-04-21T21:39:37.530Z,11.38
2024-04-21T21:42:08.019Z,4.70
2024-04-21T21:44:38.510Z,4.78
2024-04-21T21:47:09.182Z,6.10
2024-04-21T21:49:39.755Z,5.05
2024-04-21T21:52:10.274Z,5.05
2024-04-21T21:54:40.908Z,5.28
2024-04-21T21:57:11.276Z,5.32
2024-04-21T21:59:41.705Z,5.57
2024-04-21T22:02:12.269Z,5.22
2024-04-21T22:04:42.781Z,4.95
2024-04-21T22:07:13.075Z,5.88
2024-04-21T22:09:43.573Z,6.20
2024-04-21T22:12:14.013Z,6.18
2024-04-21T22:14:45.735Z,6.10
2024-04-21T22:17:16.152Z,6.18
2024-04-21T22:19:48.418Z,5.38
2024-04-21T22:22:18.819Z,6.55
2024-04-21T22:24:49.329Z,7.13
2024-04-21T22:27:19.741Z,7.07
2024-04-21T22:29:50.301Z,7.57
2024-04-21T22:32:20.760Z,8.02
2024-04-21T22:34:55.445Z,7.43
2024-04-21T22:37:25.891Z,7.13
2024-04-21T22:39:56.488Z,6.97
2024-04-21T22:42:28.369Z,6.75
2024-04-21T22:44:58.899Z,6.72
2024-04-21T22:47:31.144Z,5.57
2024-04-21T22:50:02.065Z,7.20
2024-04-21T22:52:32.551Z,8.75
2024-04-21T22:55:03.387Z,7.85
2024-04-21T22:57:34.274Z,10.00
2024-04-21T23:00:04.812Z,10.23
2024-04-21T23:02:35.329Z,9.13
2024-04-21T23:05:05.960Z,8.55
2024-04-21T23:07:36.481Z,8.77
2024-04-21T23:10:07.356Z,7.97
2024-04-21T23:12:37.734Z,6.78
2024-04-21T23:15:10.207Z,7.10
2024-04-21T23:17:40.724Z,5.35
2024-04-21T23:20:11.633Z,5.38
2024-04-21T23:22:42.099Z,6.10
2024-04-21T23:25:12.808Z,6.18
2024-04-21T23:27:43.912Z,5.78
2024-04-21T23:30:14.781Z,6.32
2024-04-21T23:32:45.382Z,6.10
2024-04-21T23:35:15.977Z,5.63
2024-04-21T23:37:46.361Z,6.07
2024-04-21T23:40:16.936Z,6.00
2024-04-21T23:42:47.529Z,5.18
2024-04-21T23:45:18.480Z,5.13
2024-04-21T23:47:50.925Z,5.68
2024-04-21T23:50:21.515Z,6.40
2024-04-21T23:52:51.947Z,20.88
2024-04-21T23:55:22.774Z,6.07
2024-04-21T23:57:53.162Z,6.03
